createdAt,value
2017-05-22T04:57:00.106Z,6.38
2017-05-22T04:59:26.860Z,7.24
2017-05-22T05:01:53.695Z,7.24
2017-05-22T05:04:20.505Z,8.42
2017-05-22T05:06:47.352Z,7.06
2017-05-22T05:09:14.172Z,7.24
2017-05-22T05:11:41.364Z,7.80
2017-05-22T05:14:08.169Z,7.46
2017-05-22T05:16:34.944Z,7.38
2017-05-22T05:19:01.801Z,8.22
2017-05-22T05:21:28.593Z,8.58
2017-05-22T05:23:55.386Z,7.78
2017-05-22T05:26:22.234Z,7.76
2017-05-22T05:28:49.003Z,7.02
2017-05-22T05:31:15.779Z,6.82
2017-05-22T05:33:42.608Z,6.62
2017-05-22T05:36:09.415Z,7.54
2017-05-22T05:38:36.173Z,5.90
2017-05-22T05:41:02.986Z,6.54
2017-05-22T05:43:29.799Z,6.28
2017-05-22T05:45:56.563Z,6.08
2017-05-22T05:48:23.399Z,5.70
2017-05-22T05:50:50.186Z,5.44
2017-05-22T05:53:16.985Z,5.48
2017-05-22T05:55:43.885Z,5.68
2017-05-22T05:58:10.714Z,5.46
2017-05-22T06:00:37.511Z,5.38
2017-05-22T06:03:04.404Z,6.56
2017-05-22T06:05:31.256Z,5.04
2017-05-22T06:07:58.063Z,7.12
2017-05-22T06:10:24.905Z,4.64
2017-05-22T06:12:51.712Z,5.70
2017-05-22T06:15:18.529Z,6.18
2017-05-22T06:17:45.410Z,5.72
2017-05-22T06:20:12.204Z,4.92
2017-05-22T06:22:39.010Z,6.18
2017-05-22T06:25:05.833Z,4.20
2017-05-22T06:27:32.655Z,4.18
2017-05-22T06:29:59.441Z,4.58
2017-05-22T06:32:26.262Z,3.72
2017-05-22T06:34:53.075Z,4.80
2017-05-22T06:37:19.854Z,3.72
2017-05-22T06:39:46.699Z,4.36
2017-05-22T06:42:13.483Z,4.42
2017-05-22T06:44:40.279Z,4.14
2017-05-22T06:47:07.133Z,4.52
2017-05-22T06:49:33.944Z,4.18
2017-05-22T06:52:00.747Z,4.04
2017-05-22T06:54:27.577Z,4.00
2017-05-22T06:56:54.338Z,4.70
2017-05-22T06:59:21.219Z,3.90
2017-05-22T07:01:48.043Z,4.78
2017-05-22T07:04:14.866Z,4.58
2017-05-22T07:06:41.662Z,4.26
2017-05-22T07:09:08.490Z,4.36
2017-05-22T07:11:35.291Z,4.18
2017-05-22T07:14:02.147Z,4.40
2017-05-22T07:16:28.970Z,4.46
2017-05-22T07:18:55.756Z,4.16
2017-05-22T07:21:22.592Z,3.22
2017-05-22T07:23:49.462Z,3.36
2017-05-22T07:26:16.261Z,4.04
2017-05-22T07:28:43.085Z,3.00
2017-05-22T07:31:09.915Z,3.56
2017-05-22T07:33:36.694Z,3.32
2017-05-22T07:36:03.459Z,2.92
2017-05-22T07:38:30.305Z,2.86
2017-05-22T07:40:57.085Z,2.10
2017-05-22T07:43:23.874Z,2.70
2017-05-22T07:45:51.019Z,2.72
2017-05-22T07:48:17.810Z,2.80
2017-05-22T07:50:44.628Z,2.72
2017-05-22T07:53:11.525Z,3.38
2017-05-22T07:55:38.418Z,3.74
2017-05-22T07:58:05.245Z,2.92
2017-05-22T08:00:32.052Z,3.44
2017-05-22T08:02:58.839Z,2.78
2017-05-22T08:05:25.614Z,3.06
2017-05-22T08:07:52.417Z,3.40
2017-05-22T08:10:19.182Z,3.10
2017-05-22T08:12:46.126Z,3.28
2017-05-22T08:15:13.061Z,3.34
2017-05-22T08:17:39.851Z,3.60
2017-05-22T08:20:06.647Z,3.18
2017-05-22T08:22:33.495Z,3.30
2017-05-22T08:25:00.292Z,3.28
2017-05-22T08:27:27.060Z,3.70
2017-05-22T08:29:53.890Z,2.82
2017-05-22T08:32:20.662Z,3.36
2017-05-22T08:34:47.471Z,3.60
2017-05-22T08:37:14.302Z,3.30
2017-05-22T08:39:41.074Z,4.52
2017-05-22T08:42:07.830Z,4.04
2017-05-22T08:44:34.637Z,4.38
2017-05-22T08:47:01.396Z,3.86
2017-05-22T08:49:28.183Z,4.14
2017-05-22T08:51:54.998Z,4.18
2017-05-22T08:54:21.803Z,3.76
2017-05-22T08:56:48.574Z,3.68
2017-05-22T08:59:15.389Z,3.84
2017-05-22T09:01:42.205Z,3.60
2017-05-22T09:04:08.992Z,4.24
2017-05-22T09:06:35.812Z,4.86
2017-05-22T09:09:02.582Z,4.04
2017-05-22T09:11:29.397Z,4.68
2017-05-22T09:13:56.195Z,4.82
2017-05-22T09:16:22.978Z,4.84
2017-05-22T09:18:49.818Z,4.78
2017-05-22T09:21:16.644Z,4.18
2017-05-22T09:23:43.458Z,4.50
2017-05-22T09:26:10.272Z,4.10
2017-05-22T09:28:37.090Z,4.90
2017-05-22T09:31:03.879Z,4.04
2017-05-22T09:33:30.695Z,4.60
2017-05-22T09:35:57.535Z,3.84
2017-05-22T09:38:24.292Z,4.00
2017-05-22T09:40:51.082Z,4.44
2017-05-22T09:43:18.310Z,4.00
2017-05-22T09:45:45.111Z,4.02
2017-05-22T09:48:12.060Z,4.32
2017-05-22T09:50:38.890Z,3.86
2017-05-22T09:53:05.856Z,4.88
2017-05-22T09:55:32.676Z,4.10
2017-05-22T09:57:59.522Z,4.34
2017-05-22T10:00:26.402Z,4.20
2017-05-22T10:02:53.301Z,4.26
2017-05-22T10:05:20.199Z,4.08
2017-05-22T10:07:47.017Z,4.90
2017-05-22T10:10:14.064Z,4.34
2017-05-22T10:12:40.944Z,4.42
2017-05-22T10:15:07.742Z,4.20
2017-05-22T10:17:34.541Z,5.10
2017-05-22T10:20:01.383Z,5.04
2017-05-22T10:22:28.181Z,5.10
2017-05-22T10:24:54.971Z,4.10
2017-05-22T10:27:21.835Z,4.56
2017-05-22T10:29:48.612Z,3.90
2017-05-22T10:32:15.457Z,5.40
2017-05-22T10:34:42.279Z,4.62
2017-05-22T10:37:09.063Z,3.90
2017-05-22T10:39:35.893Z,4.28
2017-05-22T10:42:02.721Z,4.32
2017-05-22T10:44:29.514Z,4.12
2017-05-22T10:46:56.326Z,3.80
2017-05-22T10:49:23.164Z,3.82
2017-05-22T10:51:49.988Z,4.14
2017-05-22T10:54:16.830Z,3.76
2017-05-22T10:56:43.689Z,4.10
2017-05-22T10:59:10.495Z,4.00
2017-05-22T11:01:37.318Z,3.98
2017-05-22T11:04:04.236Z,4.28
2017-05-22T11:06:31.035Z,3.64
2017-05-22T11:08:57.846Z,4.30
2017-05-22T11:11:24.669Z,4.40
2017-05-22T11:13:51.457Z,4.60
2017-05-22T11:16:18.248Z,3.82
2017-05-22T11:18:45.075Z,3.62
2017-05-22T11:21:11.853Z,3.32
2017-05-22T11:23:38.631Z,4.16
2017-05-22T11:26:05.471Z,4.18
2017-05-22T11:28:32.272Z,4.94
2017-05-22T11:30:59.054Z,4.30
2017-05-22T11:33:26.231Z,5.90
2017-05-22T11:35:53.048Z,4.42
2017-05-22T11:38:19.849Z,3.90
2017-05-22T11:40:46.678Z,4.08
2017-05-22T11:43:13.441Z,3.44
2017-05-22T11:45:40.913Z,3.34
2017-05-22T11:48:07.753Z,3.90
2017-05-22T11:50:34.581Z,4.52
2017-05-22T11:53:01.379Z,4.92
2017-05-22T11:55:28.212Z,3.94
2017-05-22T11:57:55.005Z,4.50
2017-05-22T12:00:21.846Z,4.58
2017-05-22T12:02:48.700Z,5.14
2017-05-22T12:05:16.344Z,4.02
2017-05-22T12:07:43.140Z,4.58
2017-05-22T12:10:09.968Z,4.20
2017-05-22T12:12:36.743Z,4.12
2017-05-22T12:15:03.569Z,4.30
2017-05-22T12:17:30.469Z,4.38
2017-05-22T12:19:57.248Z,4.66
2017-05-22T12:22:24.098Z,3.84
2017-05-22T12:24:50.941Z,4.16
2017-05-22T12:27:17.756Z,3.38
2017-05-22T12:29:44.591Z,3.76
2017-05-22T12:32:11.404Z,3.74
2017-05-22T12:34:38.198Z,3.50
2017-05-22T12:37:04.978Z,2.84
2017-05-22T12:39:31.792Z,3.70
2017-05-22T12:41:58.606Z,3.72
2017-05-22T12:44:25.376Z,3.94
2017-05-22T12:46:52.181Z,3.78
2017-05-22T12:49:18.956Z,3.80
2017-05-22T12:51:45.746Z,4.04
2017-05-22T12:54:12.567Z,4.10
2017-05-22T12:56:39.336Z,3.62
2017-05-22T12:59:06.148Z,3.80
2017-05-22T13:01:32.973Z,3.80
2017-05-22T13:03:59.780Z,4.28
2017-05-22T13:06:26.571Z,4.10
2017-05-22T13:08:53.399Z,3.10
2017-05-22T13:11:20.268Z,3.60
2017-05-22T13:13:47.067Z,3.70
2017-05-22T13:16:13.886Z,3.36
2017-05-22T13:18:40.696Z,3.98
2017-05-22T13:21:07.491Z,4.20
2017-05-22T13:23:34.924Z,3.92
2017-05-22T13:26:01.706Z,4.74
2017-05-22T13:28:28.527Z,3.68
2017-05-22T13:30:55.434Z,3.14
2017-05-22T13:33:22.208Z,3.96
2017-05-22T13:35:49.039Z,3.38
2017-05-22T13:38:15.877Z,4.36
2017-05-22T13:40:42.672Z,4.44
2017-05-22T13:43:09.471Z,4.42
2017-05-22T13:45:36.295Z,3.74
2017-05-22T13:48:03.090Z,4.18
2017-05-22T13:50:29.881Z,3.70
2017-05-22T13:52:56.739Z,3.80
2017-05-22T13:55:23.519Z,3.78
2017-05-22T13:57:50.321Z,4.10
2017-05-22T14:00:17.151Z,5.32
2017-05-22T14:02:43.941Z,4.42
2017-05-22T14:05:10.729Z,4.42
2017-05-22T14:07:37.566Z,4.90
2017-05-22T14:10:04.839Z,5.34
2017-05-22T14:12:32.114Z,4.42
2017-05-22T14:14:58.939Z,4.38
2017-05-22T14:17:25.761Z,4.10
2017-05-22T14:19:52.555Z,4.06
2017-05-22T14:22:19.362Z,5.26
2017-05-22T14:24:46.167Z,4.44
2017-05-22T14:27:12.944Z,5.26
2017-05-22T14:29:39.871Z,4.84
2017-05-22T14:32:06.680Z,4.52
2017-05-22T14:34:33.480Z,4.90
2017-05-22T14:37:00.305Z,3.90
2017-05-22T14:39:27.150Z,4.32
2017-05-22T14:41:53.943Z,4.10
2017-05-22T14:44:20.778Z,4.36
2017-05-22T14:46:47.555Z,3.60
2017-05-22T14:49:14.348Z,4.12
2017-05-22T14:51:41.158Z,3.78
2017-05-22T14:54:07.944Z,3.88
2017-05-22T14:56:34.714Z,4.66
2017-05-22T14:59:01.547Z,4.30
2017-05-22T15:01:28.365Z,3.96
2017-05-22T15:03:55.162Z,3.80
2017-05-22T15:06:21.973Z,4.24
2017-05-22T15:08:48.771Z,4.08
2017-05-22T15:11:15.620Z,5.00
2017-05-22T15:13:42.472Z,3.98
2017-05-22T15:16:09.261Z,3.64
2017-05-22T15:18:36.092Z,4.94
2017-05-22T15:21:02.942Z,5.44
2017-05-22T15:23:29.787Z,4.70
2017-05-22T15:25:56.650Z,4.68
2017-05-22T15:28:23.564Z,4.62
2017-05-22T15:30:50.411Z,5.26
2017-05-22T15:33:17.217Z,4.54
2017-05-22T15:35:44.023Z,4.74
2017-05-22T15:38:10.810Z,4.50
2017-05-22T15:40:37.593Z,4.60
2017-05-22T15:43:04.411Z,5.38
2017-05-22T15:45:31.240Z,4.78
2017-05-22T15:47:58.017Z,5.98
2017-05-22T15:50:24.849Z,4.64
2017-05-22T15:52:51.630Z,5.60
2017-05-22T15:55:18.451Z,5.28
2017-05-22T15:57:45.280Z,5.98
2017-05-22T16:00:12.105Z,5.86
2017-05-22T16:02:38.891Z,6.02
2017-05-22T16:05:05.786Z,5.22
2017-05-22T16:07:32.643Z,6.32
2017-05-22T16:09:59.540Z,5.96
2017-05-22T16:12:26.357Z,6.56
2017-05-22T16:14:53.244Z,6.88
2017-05-22T16:17:20.044Z,6.34
2017-05-22T16:19:46.953Z,6.10
2017-05-22T16:22:13.987Z,6.90
2017-05-22T16:24:40.835Z,6.38
2017-05-22T16:27:07.778Z,6.62
2017-05-22T16:29:34.719Z,6.38
2017-05-22T16:32:01.574Z,5.84
2017-05-22T16:34:28.397Z,5.68
2017-05-22T16:36:55.172Z,6.16
2017-05-22T16:39:21.982Z,5.94
2017-05-22T16:41:48.819Z,5.90
2017-05-22T16:44:15.622Z,5.38
2017-05-22T16:46:42.450Z,5.26
2017-05-22T16:49:09.261Z,6.18
2017-05-22T16:51:36.055Z,6.68
2017-05-22T16:54:02.839Z,5.90
2017-05-22T16:56:29.653Z,8.92
2017-05-22T16:58:56.470Z,6.40
2017-05-22T17:01:23.270Z,6.60
2017-05-22T17:03:50.119Z,5.82
2017-05-22T17:06:16.922Z,5.86
2017-05-22T17:08:43.737Z,6.20
2017-05-22T17:11:10.587Z,6.04
2017-05-22T17:13:37.414Z,6.86
2017-05-22T17:16:04.235Z,6.66
2017-05-22T17:18:31.099Z,6.08
2017-05-22T17:20:57.981Z,6.44
2017-05-22T17:23:24.768Z,7.98
2017-05-22T17:25:51.645Z,8.28
2017-05-22T17:28:18.426Z,7.92
2017-05-22T17:30:45.308Z,6.72
2017-05-22T17:33:12.167Z,7.60
2017-05-22T17:35:38.999Z,8.78
2017-05-22T17:38:05.882Z,7.78
2017-05-22T17:40:32.725Z,8.26
2017-05-22T17:42:59.529Z,8.62
2017-05-22T17:45:26.807Z,7.80
2017-05-22T17:47:53.680Z,7.52
2017-05-22T17:50:20.576Z,7.46
2017-05-22T17:52:47.377Z,7.18
2017-05-22T17:55:14.244Z,7.22
2017-05-22T17:57:41.083Z,6.12
2017-05-22T18:00:07.918Z,7.38
2017-05-22T18:02:34.752Z,6.64
2017-05-22T18:05:01.581Z,6.30
2017-05-22T18:07:28.386Z,6.98
2017-05-22T18:09:55.407Z,6.24
2017-05-22T18:12:22.262Z,7.14
2017-05-22T18:14:49.117Z,6.64
2017-05-22T18:17:15.942Z,7.60
2017-05-22T18:19:42.754Z,7.24
2017-05-22T18:22:09.629Z,8.68
2017-05-22T18:24:36.499Z,7.78
2017-05-22T18:27:03.453Z,7.58
2017-05-22T18:29:30.291Z,8.02
2017-05-22T18:31:57.151Z,7.92
2017-05-22T18:34:24.043Z,7.80
2017-05-22T18:36:51.376Z,8.30
2017-05-22T18:39:18.255Z,8.04
2017-05-22T18:41:45.141Z,8.80
2017-05-22T18:44:11.998Z,8.02
2017-05-22T18:46:38.900Z,7.54
2017-05-22T18:49:05.819Z,8.90
2017-05-22T18:51:32.773Z,9.00
2017-05-22T18:53:59.603Z,9.00
2017-05-22T18:56:26.452Z,9.38
2017-05-22T18:58:53.366Z,9.16
2017-05-22T19:01:20.339Z,9.38
2017-05-22T19:03:47.334Z,10.66
2017-05-22T19:06:14.184Z,12.54
2017-05-22T19:08:41.044Z,10.98
2017-05-22T19:11:07.849Z,10.36
2017-05-22T19:13:34.667Z,11.02
2017-05-22T19:16:01.526Z,11.80
2017-05-22T19:18:28.329Z,10.78
2017-05-22T19:20:55.133Z,10.72
2017-05-22T19:23:21.992Z,9.34
2017-05-22T19:25:48.818Z,11.78
2017-05-22T19:28:15.673Z,10.74
2017-05-22T19:30:42.605Z,9.42
2017-05-22T19:33:09.415Z,9.60
2017-05-22T19:35:36.330Z,9.26
2017-05-22T19:38:03.194Z,9.00
2017-05-22T19:40:30.116Z,9.74
2017-05-22T19:42:56.971Z,9.50
2017-05-22T19:45:23.881Z,8.78
2017-05-22T19:47:50.728Z,9.60
2017-05-22T19:50:17.632Z,9.80
2017-05-22T19:52:44.492Z,9.38
2017-05-22T19:55:11.287Z,8.54
2017-05-22T19:57:38.169Z,8.62
2017-05-22T20:00:05.075Z,8.46
2017-05-22T20:02:31.977Z,8.10
2017-05-22T20:04:58.805Z,9.46
2017-05-22T20:07:25.644Z,9.10
2017-05-22T20:09:53.360Z,9.12
2017-05-22T20:12:20.171Z,8.84
2017-05-22T20:14:47.010Z,8.26
2017-05-22T20:17:13.880Z,8.06
2017-05-22T20:19:40.696Z,8.96
2017-05-22T20:22:07.543Z,8.40
2017-05-22T20:24:34.479Z,8.12
2017-05-22T20:27:01.312Z,9.38
2017-05-22T20:29:28.176Z,7.50
2017-05-22T20:31:54.998Z,9.72
2017-05-22T20:34:21.809Z,7.74
2017-05-22T20:36:48.647Z,7.72
2017-05-22T20:39:15.446Z,8.50
2017-05-22T20:41:42.244Z,8.92
2017-05-22T20:44:09.155Z,8.78
2017-05-22T20:46:35.946Z,8.72
2017-05-22T20:49:02.726Z,7.40
2017-05-22T20:51:29.626Z,6.78
2017-05-22T20:53:56.419Z,8.86
2017-05-22T20:56:23.235Z,8.44
2017-05-22T20:58:50.066Z,8.28
2017-05-22T21:01:16.964Z,8.50
2017-05-22T21:03:43.747Z,7.68
2017-05-22T21:06:10.603Z,8.08
2017-05-22T21:08:37.472Z,7.64
2017-05-22T21:11:04.431Z,7.96
2017-05-22T21:13:31.517Z,7.96
2017-05-22T21:15:58.328Z,7.12
2017-05-22T21:18:25.127Z,8.38
2017-05-22T21:20:51.968Z,7.70
2017-05-22T21:23:18.811Z,8.36
2017-05-22T21:25:45.604Z,7.82
2017-05-22T21:28:12.482Z,8.74
2017-05-22T21:30:39.292Z,7.14
2017-05-22T21:33:06.101Z,8.46
2017-05-22T21:35:32.891Z,8.18
2017-05-22T21:37:59.695Z,8.44
2017-05-22T21:40:26.491Z,8.26
2017-05-22T21:42:53.337Z,7.72
2017-05-22T21:45:20.126Z,8.82
2017-05-22T21:47:46.917Z,8.70
2017-05-22T21:50:13.731Z,8.04
2017-05-22T21:52:40.534Z,7.84
2017-05-22T21:55:07.304Z,8.12
2017-05-22T21:57:34.150Z,8.08
2017-05-22T22:00:00.939Z,8.58
2017-05-22T22:02:27.712Z,7.60
2017-05-22T22:04:54.522Z,8.34
2017-05-22T22:07:21.397Z,7.60
2017-05-22T22:09:48.186Z,8.00
2017-05-22T22:12:15.221Z,7.66
2017-05-22T22:14:42.255Z,8.62
2017-05-22T22:17:09.058Z,7.54
2017-05-22T22:19:35.928Z,8.80
2017-05-22T22:22:02.831Z,8.34
